Monday, February 19, 2018, 5:01 AM EST
Back to Local

KEWR, Newark International Airport

Location: Elizabeth, NJ, United States Lat: 40.683
Local Time: 5:01 AM EST (10:01 GMT) Lon: -74.167
Time Zone: US/Eastern Elev: 16 ft

Show me the last for .
Show Coded

Time T Td Feel RH Dir Speed Gust Alt SLP Vis Weather Sky Remarks
2018-02-19 04:51 36 30 32 78 180° 5 - 30.52 30.52 10 BKN230 None
2018-02-19 03:51 36 28 33 72 110° 3 - 30.52 30.51 10 BKN250 None
2018-02-19 02:51 36 27 - 69 - Calm - 30.53 30.52 10 BKN250 None
2018-02-19 01:51 34 26 - 72 - Calm - 30.52 30.52 10 SCT250 None
2018-02-19 00:51 34 26 - 72 - Calm - 30.52 30.52 10 FEW250 6-hr Min Temp (1am): 34.0°F
6-hr Max Temp (1am): 42.1°F
2018-02-18 23:51 37 27 - 66 - Calm - 30.52 30.52 10 SCT250 24-hr Min Temp (12am): 33.1°F
24-hr Max Temp (12am): 46.0°F
2018-02-18 22:51 36 24 - 61 - Calm - 30.52 30.51 10 SCT250 None
2018-02-18 21:51 39 25 - 56 - Calm - 30.51 30.50 10 SCT250 None
2018-02-18 20:51 39 24 37 54 40° 3 - 30.50 30.49 10 SCT250 None
2018-02-18 19:51 40 24 38 52 40° 3 - 30.48 30.48 10 SCT250 None
2018-02-18 18:51 40 23 37 50 30° 5 - 30.45 30.45 10 SCT250 6-hr Min Temp (7pm): 39.0°F
6-hr Max Temp (7pm): 46.0°F
2018-02-18 17:51 42 22 38 44 350° 7 - 30.43 30.43 10 BKN250 None
2018-02-18 16:51 44 24 39 44 310° 10 - 30.41 30.41 10 BKN250 None
2018-02-18 15:51 45 23 40 41 330° 9 - 30.38 30.37 10 FEW040 BKN250 None
2018-02-18 14:51 45 24 39 43 330° 13 - 30.36 30.36 10 FEW040 BKN250 None
2018-02-18 13:51 45 25 37 45 280° 16 21 30.36 30.35 10 SCT040 None
2018-02-18 12:51 43 25 34 48 290° 17 22 30.34 30.33 10 FEW035 Snow depth: 1"
6-hr Min Temp (1pm): 34.0°F
6-hr Max Temp (1pm): 43.0°F
2018-02-18 11:51 41 24 31 50 290° 14 23 30.32 30.32 10 FEW035 None
2018-02-18 10:51 40 23 31 50 300° 17 - 30.29 30.29 10 FEW035 None
2018-02-18 09:51 39 23 29 52 310° 10 22 30.26 30.26 10 FEW034 None
2018-02-18 08:51 37 26 26 64 320° 16 24 30.22 30.21 10 FEW030 None
2018-02-18 07:51 36 27 29 69 350° 9 - 30.17 30.17 10 FEW030 None
2018-02-18 06:51 34 28 25 78 310° 14 - 30.12 30.11 10 FEW025 6-hr Precip Total (7am): 0.00"
24-hr Precip Total (7am): 0.48"
Snow depth: 2"
6-hr Min Temp (7am): 33.1°F
6-hr Max Temp (7am): 35.1°F
2018-02-18 05:51 33 30 27 88 280° 7 - 30.08 30.08 10 FEW020 None

Support USWX by starting your Amazon purchase here.